Airfield :
LOGIN :

Register | Disclaimer

   EN    FR    IT 

 










Legend :    VFR   Marginal VFR   IFR   Intensive IFR   Very Intensive IFR
Visi :
Ceiling :
>= 8 km
>= 3000ft
5 to 8 km
1000 to 3000 ft
1500m to 5 km
500 to 1000 ft
800 to 1500m
200 to 500 ft
< 800m
< 200 ft
Symbols :   Thunderstorms  Fog  Heavy snow  Heavy precipitations  Wind > 20 kt
SIGMETs :     Misc.  Thunderstorms  Icing  Turbulence  Mountain Waves  Volcanic Ashes






- Airport Elevation : 353 ft
- IATA code : ZAG


LDZA - Zagreb Pleso

CURRENT METAR :
  • 161100Z VRB03KT 9999 FEW035 15/07 Q1020 NOSIG

EXPIRED METARs :
  • 161030Z VRB02KT 9999 FEW030 14/06 Q1021 NOSIG
  • 161000Z VRB03KT 9999 FEW030 13/07 Q1021 NOSIG
  • 160930Z VRB03KT 9999 FEW035 12/07 Q1021 NOSIG
  • 160900Z 27003KT 220V340 9999 FEW035 10/07 Q1021 NOSIG
  • 160830Z 24003KT 200V290 9999 FEW035 08/07 Q1021 NOSIG
  • 160800Z 25004KT 150V290 9999 FEW035 07/06 Q1021 NOSIG

TAF TAF LDZA
Valid from the 16 at 06:00 until the 17 at 06:00 UTC


160525Z 1606/1706 VRB02KT 9999 FEW040 TX16/1613Z TN02/1705Z
BECMG 1621/1623 2000 BR
PROB40
TEMPO 1700/1706 0200 FG VV002
ATIS : +385 1 6-259-214



MET'MAP, your aeronautical weather chart ! - Copyright ORBIFLY December 2007 - Disclaimer

ORBIFLY MET'MAP TEAM :

Programming & Development : Alexandra Zaïnal
Concept & original design : Baudouin d'Aumeries
Assistance for programming : Marc-Olivier Méhu
Technical & hardware support : Manuel Goepfert

Contact : metmap@orbifly.com




SOURCES & CREDITS :

   NOAA